createdAt,value
2023-11-18T00:01:55.193Z,101765.34
2023-11-18T00:04:24.928Z,101776.63
2023-11-18T00:06:55.829Z,101788.56
2023-11-18T00:09:26.116Z,101785.41
2023-11-18T00:11:55.719Z,101772.59
2023-11-18T00:14:27.883Z,101797.28
2023-11-18T00:16:57.589Z,101788.31
2023-11-18T00:19:27.215Z,101779.53
2023-11-18T00:21:57.197Z,101762.78
2023-11-18T00:24:26.842Z,101778.38
2023-11-18T00:26:56.460Z,101777.97
2023-11-18T00:29:28.687Z,101769.50
2023-11-18T00:31:58.452Z,101783.75
2023-11-18T00:34:28.137Z,101769.16
2023-11-18T00:36:58.605Z,101760.47
2023-11-18T00:39:28.278Z,101773.56
2023-11-18T00:41:58.124Z,101757.53
2023-11-18T00:44:30.315Z,101770.16
2023-11-18T00:47:00.097Z,101771.28
2023-11-18T00:49:29.830Z,101753.25
2023-11-18T00:51:59.698Z,101774.84
2023-11-18T00:54:29.365Z,101783.16
2023-11-18T00:56:58.969Z,101787.91
2023-11-18T00:59:28.620Z,101795.56
2023-11-18T01:01:58.285Z,101787.66
2023-11-18T01:04:28.883Z,101795.81
2023-11-18T01:06:59.138Z,101805.00
2023-11-18T01:09:29.055Z,101805.59
2023-11-18T01:12:07.862Z,101809.91
2023-11-18T01:14:43.214Z,101803.66
2023-11-18T01:17:15.187Z,101779.41
2023-11-18T01:19:45.337Z,101819.78
2023-11-18T01:22:15.081Z,101801.22
2023-11-18T01:24:45.056Z,101832.28
2023-11-18T01:27:14.622Z,101838.06
2023-11-18T01:29:48.217Z,101822.34
2023-11-18T01:32:18.901Z,101835.25
2023-11-18T01:34:51.692Z,101838.44
2023-11-18T01:37:22.780Z,101837.31
2023-11-18T01:39:52.417Z,101844.41
2023-11-18T01:42:22.229Z,101844.75
2023-11-18T01:44:56.371Z,101843.44
2023-11-18T01:47:26.056Z,101848.63
2023-11-18T01:49:56.768Z,101849.72
2023-11-18T01:52:27.735Z,101845.22
2023-11-18T01:54:58.968Z,101841.16
2023-11-18T01:57:28.987Z,101848.59
2023-11-18T02:00:01.341Z,101836.78
2023-11-18T02:02:31.123Z,101856.28
2023-11-18T02:05:02.415Z,101857.44
2023-11-18T02:07:32.598Z,101847.09
2023-11-18T02:10:02.409Z,101860.13
2023-11-18T02:12:42.619Z,101860.47
2023-11-18T02:15:15.781Z,101830.56
2023-11-18T02:17:48.217Z,101834.44
2023-11-18T02:20:22.328Z,101859.69
2023-11-18T02:22:52.666Z,101831.31
2023-11-18T02:25:22.733Z,101844.53
2023-11-18T02:27:54.941Z,101857.72
2023-11-18T02:30:24.812Z,101829.72
2023-11-18T02:33:00.449Z,101860.16
2023-11-18T02:35:36.555Z,101860.78
2023-11-18T02:38:06.816Z,101861.06
2023-11-18T02:40:40.475Z,101861.66
2023-11-18T02:43:14.170Z,101868.53
2023-11-18T02:45:45.845Z,101864.53
2023-11-18T02:48:16.351Z,101845.28
2023-11-18T02:50:47.999Z,101871.97
2023-11-18T02:53:17.750Z,101874.38
2023-11-18T02:55:47.623Z,101858.78
2023-11-18T02:58:19.897Z,101855.69
2023-11-18T03:00:49.479Z,101863.47
2023-11-18T03:03:20.099Z,101863.75
2023-11-18T03:05:51.202Z,101852.94
2023-11-18T03:08:20.857Z,101852.09
2023-11-18T03:10:53.896Z,101839.03
2023-11-18T03:13:26.304Z,101841.47
2023-11-18T03:15:56.495Z,101857.31
2023-11-18T03:18:27.137Z,101851.63
2023-11-18T03:20:56.766Z,101838.38
2023-11-18T03:23:26.433Z,101843.47
2023-11-18T03:25:57.850Z,101845.56
2023-11-18T03:28:30.130Z,101878.66
2023-11-18T03:31:00.291Z,101842.69
2023-11-18T03:33:31.324Z,101863.75
2023-11-18T03:36:00.976Z,101861.78
2023-11-18T03:38:31.518Z,101862.78
2023-11-18T03:41:01.148Z,101868.16
2023-11-18T03:43:33.435Z,101846.16
2023-11-18T03:46:03.276Z,101874.44
2023-11-18T03:48:32.909Z,101849.97
2023-11-18T03:51:02.596Z,101864.00
2023-11-18T03:53:35.034Z,101863.59
2023-11-18T03:56:06.152Z,101867.88
2023-11-18T03:58:38.496Z,101865.19
2023-11-18T04:01:12.369Z,101859.59
2023-11-18T04:03:43.287Z,101838.63
2023-11-18T04:06:15.219Z,101860.09
2023-11-18T04:08:47.935Z,101858.47
2023-11-18T04:11:17.923Z,101851.44
2023-11-18T04:13:50.264Z,101834.44
2023-11-18T04:16:20.942Z,101842.25
2023-11-18T04:18:51.205Z,101836.94
2023-11-18T04:21:20.836Z,101829.59
2023-11-18T04:23:50.419Z,101824.75
2023-11-18T04:26:20.039Z,101842.63
2023-11-18T04:28:52.258Z,101848.59
2023-11-18T04:31:22.726Z,101811.34
2023-11-18T04:33:52.400Z,101822.56
2023-11-18T04:36:23.316Z,101826.72
2023-11-18T04:38:52.908Z,101839.22
2023-11-18T04:41:24.459Z,101841.91
2023-11-18T04:43:56.860Z,101824.56
2023-11-18T04:46:27.178Z,101838.97
2023-11-18T04:48:57.579Z,101830.03
2023-11-18T04:51:27.320Z,101812.25
2023-11-18T04:53:57.009Z,101828.22
2023-11-18T04:56:26.706Z,101832.34
2023-11-18T04:58:58.963Z,101829.94
2023-11-18T05:01:28.621Z,101830.63
2023-11-18T05:03:58.682Z,101810.91
2023-11-18T05:06:28.364Z,101818.44
2023-11-18T05:08:57.998Z,101819.44
2023-11-18T05:11:27.609Z,101820.75
2023-11-18T05:14:00.454Z,101826.66
2023-11-18T05:16:30.170Z,101824.16
2023-11-18T05:18:59.888Z,101816.88
2023-11-18T05:21:29.558Z,101831.50
2023-11-18T05:23:59.228Z,101822.72
2023-11-18T05:26:28.820Z,101802.84
2023-11-18T05:29:01.030Z,101814.66
2023-11-18T05:31:33.323Z,101816.34
2023-11-18T05:34:04.473Z,101817.47
2023-11-18T05:36:38.888Z,101800.16
2023-11-18T05:39:08.882Z,101810.00
2023-11-18T05:41:41.133Z,101808.56
2023-11-18T05:44:18.820Z,101782.34
2023-11-18T05:46:49.090Z,101784.00
2023-11-18T05:49:19.204Z,101763.66
2023-11-18T05:51:49.461Z,101760.28
2023-11-18T05:54:19.082Z,101752.75
2023-11-18T05:56:48.721Z,101784.25
2023-11-18T05:59:20.992Z,101766.09
2023-11-18T06:01:50.994Z,101778.03
2023-11-18T06:04:20.654Z,101784.63
2023-11-18T06:06:50.295Z,101786.00
2023-11-18T06:09:22.344Z,101766.09
2023-11-18T06:11:52.335Z,101796.31
2023-11-18T06:14:24.771Z,101772.59
2023-11-18T06:16:54.468Z,101780.25
2023-11-18T06:19:24.659Z,101785.59
2023-11-18T06:21:54.261Z,101783.44
2023-11-18T06:24:23.857Z,101784.63
2023-11-18T06:26:53.414Z,101777.53
2023-11-18T06:29:25.661Z,101771.19
2023-11-18T06:31:55.324Z,101806.63
2023-11-18T06:34:24.934Z,101747.81
2023-11-18T06:36:54.534Z,101800.81
2023-11-18T06:39:30.675Z,101808.28
2023-11-18T06:42:00.380Z,101797.06
2023-11-18T06:44:32.533Z,101775.13
2023-11-18T06:47:04.657Z,101811.34
2023-11-18T06:49:35.729Z,101801.69
2023-11-18T06:52:06.408Z,101797.31
2023-11-18T06:54:36.052Z,101808.78
2023-11-18T06:57:05.912Z,101819.63
2023-11-18T06:59:38.740Z,101802.81
2023-11-18T07:02:08.883Z,101822.22
2023-11-18T07:04:39.825Z,101776.66
2023-11-18T07:07:10.184Z,101815.00
2023-11-18T07:09:40.674Z,101805.44
2023-11-18T07:12:10.502Z,101828.19
2023-11-18T07:14:42.647Z,101792.06
2023-11-18T07:17:12.392Z,101815.59
2023-11-18T07:19:42.067Z,101814.50
2023-11-18T07:22:11.703Z,101814.63
2023-11-18T07:24:42.249Z,101827.28
2023-11-18T07:27:12.714Z,101818.28
2023-11-18T07:29:46.443Z,101777.84
2023-11-18T07:32:16.128Z,101828.47
2023-11-18T07:34:46.203Z,101821.28
2023-11-18T07:37:15.983Z,101821.38
2023-11-18T07:39:49.740Z,101815.56
2023-11-18T07:42:19.407Z,101818.59
2023-11-18T07:44:52.856Z,101823.09
2023-11-18T07:47:22.799Z,101825.03
2023-11-18T07:49:52.422Z,101838.56
2023-11-18T07:52:22.033Z,101834.44
2023-11-18T07:54:53.664Z,101830.50
2023-11-18T07:57:25.004Z,101826.22
2023-11-18T07:59:57.554Z,101790.09
2023-11-18T08:02:27.275Z,101835.53
2023-11-18T08:04:57.972Z,101829.78
2023-11-18T08:07:27.832Z,101805.78
2023-11-18T08:09:58.905Z,101835.09
2023-11-18T08:12:26.412Z,101838.19
2023-11-18T08:14:59.199Z,101829.97
2023-11-18T08:17:29.378Z,101834.13
2023-11-18T08:20:01.154Z,101827.16
2023-11-18T08:22:31.434Z,101822.06
2023-11-18T08:25:01.054Z,101822.84
2023-11-18T08:27:31.548Z,101804.19
2023-11-18T08:30:06.909Z,101793.97
2023-11-18T08:32:36.687Z,101784.25
2023-11-18T08:35:07.274Z,101799.59
2023-11-18T08:37:37.232Z,101757.31
2023-11-18T08:40:07.818Z,101782.59
2023-11-18T08:42:37.688Z,101765.31
2023-11-18T08:45:15.704Z,101794.28
2023-11-18T08:47:47.293Z,101784.06
2023-11-18T08:50:18.177Z,101792.22
2023-11-18T08:52:48.844Z,101808.31
2023-11-18T08:55:22.468Z,101785.63
2023-11-18T08:57:59.638Z,101815.41
2023-11-18T09:00:51.629Z,101811.69
2023-11-18T09:03:26.087Z,101827.75
2023-11-18T09:06:05.582Z,101808.84
2023-11-18T09:08:36.617Z,101821.38
2023-11-18T09:11:09.121Z,101813.31
2023-11-18T09:13:40.185Z,101797.56
2023-11-18T09:16:12.867Z,101799.88
2023-11-18T09:18:46.344Z,101797.94
2023-11-18T09:21:20.898Z,101797.56
2023-11-18T09:23:51.412Z,101781.53
2023-11-18T09:26:22.965Z,101756.91
2023-11-18T09:28:54.140Z,101774.22
2023-11-18T09:31:26.999Z,101779.75
2023-11-18T09:33:59.114Z,101789.09
2023-11-18T09:36:30.155Z,101776.91
2023-11-18T09:39:00.641Z,101757.06
2023-11-18T09:41:30.564Z,101780.91
2023-11-18T09:44:03.924Z,101783.19
2023-11-18T09:46:42.182Z,101772.28
2023-11-18T09:49:27.216Z,101783.34
2023-11-18T09:52:01.834Z,101780.38
2023-11-18T09:54:39.255Z,101788.44
2023-11-18T09:57:18.758Z,101788.56
2023-11-18T09:59:56.315Z,101792.13
2023-11-18T10:02:30.425Z,101798.06
2023-11-18T10:05:02.751Z,101771.28
2023-11-18T10:07:36.403Z,101769.09
2023-11-18T10:10:15.560Z,101746.16
2023-11-18T10:12:47.282Z,101716.69
2023-11-18T10:15:18.872Z,101743.63
2023-11-18T10:18:01.267Z,101733.44
2023-11-18T10:20:52.293Z,101729.63
2023-11-18T10:23:23.649Z,101739.66
2023-11-18T10:25:58.180Z,101742.81
2023-11-18T10:28:33.625Z,101736.28
2023-11-18T10:31:07.005Z,101723.38
2023-11-18T10:33:42.904Z,101701.38
2023-11-18T10:36:23.924Z,101710.88
2023-11-18T10:38:57.615Z,101675.75
2023-11-18T10:41:27.672Z,101721.34
2023-11-18T10:44:10.948Z,101712.09
2023-11-18T10:46:41.618Z,101728.00
2023-11-18T10:49:13.954Z,101716.38
2023-11-18T10:51:43.666Z,101699.63
2023-11-18T10:54:18.647Z,101706.16
2023-11-18T10:56:57.775Z,101678.94
2023-11-18T10:59:28.120Z,101677.50
2023-11-18T11:01:59.419Z,101666.59
2023-11-18T11:04:46.992Z,101655.00
2023-11-18T11:07:20.361Z,101661.31
2023-11-18T11:09:50.898Z,101663.31
2023-11-18T11:12:26.007Z,101668.00
2023-11-18T11:15:05.656Z,101652.94
2023-11-18T11:17:39.296Z,101636.78
2023-11-18T11:20:19.145Z,101641.03
2023-11-18T11:23:05.243Z,101641.16
2023-11-18T11:25:45.279Z,101639.19
2023-11-18T11:28:21.091Z,101638.34
2023-11-18T11:30:59.515Z,101643.59
2023-11-18T11:33:38.156Z,101638.78
2023-11-18T11:36:17.562Z,101618.66
2023-11-18T11:38:48.452Z,101623.75
2023-11-18T11:41:26.642Z,101623.59
2023-11-18T11:44:00.411Z,101631.97
2023-11-18T11:46:36.151Z,101621.06
2023-11-18T11:49:16.634Z,101628.59
2023-11-18T11:51:55.309Z,101621.91
2023-11-18T11:54:30.425Z,101620.91
2023-11-18T11:57:07.205Z,101619.34
2023-11-18T11:59:58.328Z,101587.00
2023-11-18T12:02:30.840Z,101578.94
2023-11-18T12:05:07.995Z,101587.72
2023-11-18T12:07:44.152Z,101582.19
2023-11-18T12:10:22.698Z,101568.31
2023-11-18T12:12:53.529Z,101572.25
2023-11-18T12:15:56.128Z,101578.63
2023-11-18T12:18:26.362Z,101589.13
2023-11-18T12:20:58.907Z,101585.44
2023-11-18T12:23:31.977Z,101580.75
2023-11-18T12:26:04.362Z,101583.72
2023-11-18T12:28:36.555Z,101578.63
2023-11-18T12:31:18.236Z,101572.38
2023-11-18T12:34:11.209Z,101572.25
2023-11-18T12:37:14.132Z,101570.41
2023-11-18T12:40:14.625Z,101564.00
2023-11-18T12:43:06.175Z,101577.78
2023-11-18T12:46:09.779Z,101579.66
2023-11-18T12:48:47.658Z,101556.09
2023-11-18T12:51:20.793Z,101559.06
2023-11-18T12:53:54.997Z,101553.38
2023-11-18T12:56:25.481Z,101552.81
2023-11-18T12:58:57.668Z,101552.53
2023-11-18T13:01:28.657Z,101547.44
2023-11-18T13:03:58.496Z,101546.75
2023-11-18T13:06:30.049Z,101557.25
2023-11-18T13:09:00.225Z,101550.00
2023-11-18T13:11:32.707Z,101538.38
2023-11-18T13:14:06.418Z,101535.50
2023-11-18T13:16:36.766Z,101543.16
2023-11-18T13:19:06.591Z,101528.88
2023-11-18T13:21:37.996Z,101545.84
2023-11-18T13:24:09.738Z,101538.22
2023-11-18T13:26:39.533Z,101532.81
2023-11-18T13:29:11.847Z,101536.84
2023-11-18T13:31:41.762Z,101525.88
2023-11-18T13:34:11.973Z,101525.34
2023-11-18T13:36:41.967Z,101523.66
2023-11-18T13:39:17.997Z,101517.25
2023-11-18T13:41:49.666Z,101512.88
2023-11-18T13:44:40.118Z,101509.03
2023-11-18T13:47:12.982Z,101492.16
2023-11-18T13:49:44.067Z,101487.16
2023-11-18T13:52:17.058Z,101478.38
2023-11-18T13:54:46.805Z,101476.78
2023-11-18T13:57:16.636Z,101477.69
2023-11-18T13:59:48.836Z,101472.84
2023-11-18T14:02:18.830Z,101468.63
2023-11-18T14:04:49.790Z,101461.13
2023-11-18T14:07:19.999Z,101449.34
2023-11-18T14:09:51.363Z,101439.41
2023-11-18T14:12:21.030Z,101435.19
2023-11-18T14:14:54.259Z,101431.06
2023-11-18T14:17:23.947Z,101419.44
2023-11-18T14:19:53.700Z,101417.16
2023-11-18T14:22:23.407Z,101420.00
2023-11-18T14:24:53.674Z,101411.09
2023-11-18T14:27:23.377Z,101412.09
2023-11-18T14:29:55.563Z,101412.09
2023-11-18T14:32:25.236Z,101420.31
2023-11-18T14:34:55.378Z,101408.16
2023-11-18T14:37:25.015Z,101405.34
2023-11-18T14:39:55.156Z,101401.06
2023-11-18T14:42:24.989Z,101394.13
2023-11-18T14:44:58.178Z,101395.13
2023-11-18T14:47:27.926Z,101392.31
2023-11-18T14:49:57.561Z,101387.22
2023-11-18T14:52:27.139Z,101379.66
2023-11-18T14:54:56.695Z,101373.75
2023-11-18T14:57:26.240Z,101379.22
2023-11-18T14:59:59.941Z,101373.97
2023-11-18T15:02:29.964Z,101367.66
2023-11-18T15:04:59.570Z,101380.25
2023-11-18T15:07:29.242Z,101371.50
2023-11-18T15:09:58.857Z,101386.81
2023-11-18T15:12:28.485Z,101399.88
2023-11-18T15:15:01.016Z,101391.50
2023-11-18T15:17:43.765Z,101384.97
2023-11-18T15:20:17.284Z,101367.25
2023-11-18T15:22:46.871Z,101369.78
2023-11-18T15:25:18.654Z,101362.13
2023-11-18T15:27:48.896Z,101359.88
2023-11-18T15:30:23.077Z,101357.34
2023-11-18T15:32:53.250Z,101361.03
2023-11-18T15:35:23.589Z,101356.50
2023-11-18T15:37:54.047Z,101337.63
2023-11-18T15:40:26.949Z,101337.94
2023-11-18T15:42:57.185Z,101341.31
2023-11-18T15:45:29.659Z,101329.38
2023-11-18T15:48:00.724Z,101344.25
2023-11-18T15:50:30.893Z,101352.47
2023-11-18T15:53:00.620Z,101346.31
2023-11-18T15:55:30.545Z,101339.22
2023-11-18T15:58:00.162Z,101332.44
2023-11-18T16:00:33.284Z,101335.03
2023-11-18T16:03:05.984Z,101326.88
2023-11-18T16:05:36.408Z,101339.63
2023-11-18T16:08:09.003Z,101338.94
2023-11-18T16:10:38.970Z,101321.38
2023-11-18T16:13:08.776Z,101323.38
2023-11-18T16:15:42.317Z,101325.47
2023-11-18T16:18:11.933Z,101329.31
2023-11-18T16:20:41.564Z,101316.00
2023-11-18T16:23:11.227Z,101304.69
2023-11-18T16:25:40.870Z,101299.75
2023-11-18T16:28:14.064Z,101285.47
2023-11-18T16:30:46.257Z,101269.44
2023-11-18T16:33:16.022Z,101274.63
2023-11-18T16:35:45.683Z,101245.53
2023-11-18T16:38:15.317Z,101250.91
2023-11-18T16:40:44.935Z,101251.94
2023-11-18T16:43:14.503Z,101251.53
2023-11-18T16:45:48.619Z,101245.47
2023-11-18T16:48:18.983Z,101227.47
2023-11-18T16:50:48.638Z,101205.78
2023-11-18T16:53:19.366Z,101206.81
2023-11-18T16:55:49.032Z,101205.09
2023-11-18T16:58:18.588Z,101210.88
2023-11-18T17:00:52.493Z,101223.63
2023-11-18T17:03:22.212Z,101206.94
2023-11-18T17:05:51.903Z,101185.41
2023-11-18T17:08:21.529Z,101189.28
2023-11-18T17:10:55.089Z,101189.34
2023-11-18T17:13:27.368Z,101186.13
2023-11-18T17:16:00.099Z,101184.97
2023-11-18T17:18:30.513Z,101182.44
2023-11-18T17:21:00.134Z,101170.00
2023-11-18T17:23:32.345Z,101147.47
2023-11-18T17:26:01.938Z,101143.22
2023-11-18T17:28:31.513Z,101148.31
2023-11-18T17:31:03.910Z,101175.22
2023-11-18T17:33:33.552Z,101165.31
2023-11-18T17:36:03.177Z,101138.94
2023-11-18T17:38:34.368Z,101134.41
2023-11-18T17:41:04.120Z,101128.88
2023-11-18T17:43:33.707Z,101133.25
2023-11-18T17:46:06.566Z,101134.25
2023-11-18T17:48:35.908Z,101120.25
2023-11-18T17:51:05.589Z,101108.94
2023-11-18T17:53:35.223Z,101104.09
2023-11-18T17:56:06.770Z,101095.59
2023-11-18T17:58:36.442Z,101086.31
2023-11-18T18:03:49.657Z,101082.13
2023-11-18T18:06:19.270Z,101055.47
2023-11-18T18:08:48.823Z,101071.69
2023-11-18T18:11:20.556Z,101063.69
2023-11-18T18:13:50.123Z,101060.44
2023-11-18T18:16:22.291Z,101044.69
2023-11-18T18:18:51.875Z,101035.06
2023-11-18T18:21:21.456Z,101037.13
2023-11-18T18:23:51.549Z,101038.47
2023-11-18T18:26:21.386Z,101019.09
2023-11-18T18:28:50.992Z,101019.69
2023-11-18T18:31:23.156Z,101014.97
2023-11-18T18:33:52.751Z,101001.38
2023-11-18T18:36:22.377Z,101000.47
2023-11-18T18:38:51.952Z,100979.50
2023-11-18T18:41:21.550Z,100957.53
2023-11-18T18:43:51.281Z,100953.53
2023-11-18T18:46:23.504Z,100948.66
2023-11-18T18:48:53.582Z,100940.25
2023-11-18T18:51:23.834Z,100912.72
2023-11-18T18:53:53.489Z,100900.97
2023-11-18T18:56:24.417Z,100909.69
2023-11-18T18:58:54.074Z,100913.25
2023-11-18T19:01:27.927Z,100914.38
2023-11-18T19:03:58.130Z,100904.78
2023-11-18T19:06:29.000Z,100902.59
2023-11-18T19:08:58.585Z,100894.34
2023-11-18T19:11:28.151Z,100897.22
2023-11-18T19:13:57.717Z,100893.50
2023-11-18T19:16:30.033Z,100892.47
2023-11-18T19:18:59.968Z,100885.09
2023-11-18T19:21:30.478Z,100887.69
2023-11-18T19:24:00.686Z,100884.50
2023-11-18T19:26:30.306Z,100879.09
2023-11-18T19:29:00.172Z,100865.44
2023-11-18T19:31:32.372Z,100865.09
2023-11-18T19:34:02.498Z,100852.00
2023-11-18T19:36:32.281Z,100852.19
2023-11-18T19:39:01.975Z,100841.56
2023-11-18T19:41:31.666Z,100822.06
2023-11-18T19:44:02.476Z,100813.84
2023-11-18T19:46:34.673Z,100800.41
2023-11-18T19:49:06.251Z,100793.31
2023-11-18T19:51:35.850Z,100785.56
2023-11-18T19:54:05.449Z,100784.38
2023-11-18T19:56:35.144Z,100786.91
2023-11-18T19:59:05.973Z,100779.53
2023-11-18T20:01:38.455Z,100774.47
2023-11-18T20:04:08.648Z,100765.88
2023-11-18T20:06:38.551Z,100761.34
2023-11-18T20:09:09.069Z,100753.59
2023-11-18T20:11:38.679Z,100747.91
2023-11-18T20:14:08.522Z,100739.16
2023-11-18T20:16:40.678Z,100748.56
2023-11-18T20:19:10.816Z,100743.84
2023-11-18T20:21:41.072Z,100746.41
2023-11-18T20:24:11.667Z,100747.38
2023-11-18T20:26:41.491Z,100737.66
2023-11-18T20:29:11.222Z,100738.66
2023-11-18T20:31:43.449Z,100728.75
2023-11-18T20:34:14.392Z,100727.38
2023-11-18T20:36:45.114Z,100720.28
2023-11-18T20:39:18.837Z,100711.03
2023-11-18T20:41:49.934Z,100718.44
2023-11-18T20:44:19.683Z,100715.63
2023-11-18T20:46:52.167Z,100707.03
2023-11-18T20:49:21.815Z,100700.81
2023-11-18T20:51:51.550Z,100693.44
2023-11-18T20:54:21.128Z,100684.66
2023-11-18T20:56:50.694Z,100677.63
2023-11-18T20:59:21.174Z,100677.44
2023-11-18T21:01:53.597Z,100679.28
2023-11-18T21:04:23.364Z,100678.63
2023-11-18T21:06:53.133Z,100663.13
2023-11-18T21:09:23.097Z,100660.28
2023-11-18T21:11:54.910Z,100649.19
2023-11-18T21:14:45.429Z,100640.63
2023-11-18T21:17:17.609Z,100638.44
2023-11-18T21:19:47.357Z,100625.47
2023-11-18T21:22:19.271Z,100619.41
2023-11-18T21:24:49.630Z,100619.09
2023-11-18T21:27:19.172Z,100623.28
2023-11-18T21:29:49.421Z,100605.47
2023-11-18T21:32:23.093Z,100608.16
2023-11-18T21:34:52.886Z,100608.81
2023-11-18T21:37:22.436Z,100594.84
2023-11-18T21:39:52.014Z,100585.13
2023-11-18T21:42:22.772Z,100582.44
2023-11-18T21:44:53.239Z,100579.38
2023-11-18T21:47:26.798Z,100575.88
2023-11-18T21:49:56.908Z,100565.94
2023-11-18T21:52:27.040Z,100568.13
2023-11-18T21:54:57.178Z,100570.66
2023-11-18T21:57:26.731Z,100563.28
2023-11-18T21:59:56.637Z,100556.84
2023-11-18T22:02:28.834Z,100544.09
2023-11-18T22:04:59.450Z,100534.34
2023-11-18T22:07:29.024Z,100539.91
2023-11-18T22:09:58.700Z,100536.38
2023-11-18T22:12:28.299Z,100521.56
2023-11-18T22:14:58.386Z,100505.63
2023-11-18T22:17:30.579Z,100489.94
2023-11-18T22:20:00.186Z,100471.97
2023-11-18T22:25:02.500Z,100480.56
2023-11-18T22:27:35.179Z,100479.38
2023-11-18T22:30:07.599Z,100469.63
2023-11-18T22:32:39.863Z,100464.94
2023-11-18T22:35:10.775Z,100455.84
2023-11-18T22:37:40.441Z,100454.00
2023-11-18T22:40:17.298Z,100464.75
2023-11-18T22:42:48.368Z,100468.28
2023-11-18T22:45:21.161Z,100480.38
2023-11-18T22:47:54.505Z,100471.13
2023-11-18T22:50:25.418Z,100461.91
2023-11-18T22:52:58.959Z,100433.16
2023-11-18T22:55:28.686Z,100426.94
2023-11-18T22:57:58.722Z,100420.72
2023-11-18T23:00:39.694Z,100416.66
2023-11-18T23:03:12.095Z,100420.88
2023-11-18T23:05:42.186Z,100415.81
2023-11-18T23:08:17.936Z,100387.28
2023-11-18T23:10:48.510Z,100394.31
2023-11-18T23:13:20.557Z,100393.13
2023-11-18T23:15:50.588Z,100394.16
2023-11-18T23:18:23.858Z,100395.16
2023-11-18T23:20:53.521Z,100376.31
2023-11-18T23:23:23.172Z,100372.78
2023-11-18T23:25:52.787Z,100367.06
2023-11-18T23:28:22.360Z,100361.69
2023-11-18T23:30:53.577Z,100369.25
2023-11-18T23:33:25.776Z,100365.72
2023-11-18T23:35:56.272Z,100366.03
2023-11-18T23:38:27.273Z,100352.94
2023-11-18T23:40:57.051Z,100349.72
2023-11-18T23:43:26.670Z,100331.91
2023-11-18T23:45:57.196Z,100334.94
2023-11-18T23:48:30.293Z,100332.44
2023-11-18T23:50:59.886Z,100332.09
2023-11-18T23:53:29.463Z,100330.56
2023-11-18T23:55:59.470Z,100328.56
2023-11-18T23:58:29.140Z,100328.03
